Huvudsida
METAR-TAF:

METAR-TAF

Flygplatser :

Lusaka International Airport

Lusaka, Zambia

latitud: 15-19-51S, longitud: 028-27-09E, höjd: 1152 m

Aktuellt väderrapport

Denna rapport gjordes för 1 timme och 8 minuter sedan, klockan 07:00 UTC
Vind 10 kt från ost
Temperatur 20°C
Fuktighet 83%
Tryck 1025 hPa
Sikt 10 km eller mer
Få moln på en höjd av 1800 ft
Få moln på en höjd av 10000 ft

METAR: FLKK 270700Z 10010KT 9999 FEW018 FEW100 20/17 Q1025

Tid: 10:08 (08:08 UTC)


TAF: saknas

Aktuella väderrapporter och prognoser från 4000 flygplatser (METAR- och TAF-rapporter).

De tillgängliga stationerna syns som gula och röda prickar på kartan.

För musen över prickarna för att se namnen på stationerna.

Klicka sedan för att få väderrapporter och prognoser.

För att ändra kartan: Klicka på de gröna knapparna med ett svart kors på för att zooma in; den gröna knappen med ett streck på för att zooma ut; eller på de gröna pilarna för angränsande kartor.


METAR-TAF: